createdAt,value
2018-12-15T00:02:17.926Z,22.30
2018-12-15T00:04:45.368Z,19.90
2018-12-15T00:07:12.823Z,18.40
2018-12-15T00:09:40.297Z,18.32
2018-12-15T00:12:07.746Z,19.77
2018-12-15T00:14:35.195Z,18.30
2018-12-15T00:17:05.641Z,20.65
2018-12-15T00:19:32.182Z,18.00
2018-12-15T00:21:59.625Z,17.92
2018-12-15T00:24:27.062Z,18.37
2018-12-15T00:26:54.498Z,18.48
2018-12-15T00:29:22.351Z,19.40
2018-12-15T00:31:49.805Z,19.57
2018-12-15T00:34:17.302Z,21.20
2018-12-15T00:36:44.742Z,21.37
2018-12-15T00:39:12.262Z,18.87
2018-12-15T00:41:39.722Z,18.75
2018-12-15T00:44:07.157Z,19.70
2018-12-15T00:46:34.611Z,19.85
2018-12-15T00:49:02.066Z,21.65
2018-12-15T00:51:29.510Z,18.17
2018-12-15T00:53:56.946Z,17.62
2018-12-15T00:56:24.394Z,19.57
2018-12-15T00:58:51.846Z,19.50
2018-12-15T01:01:19.283Z,20.37
2018-12-15T01:03:46.710Z,19.30
2018-12-15T01:06:14.151Z,20.53
2018-12-15T01:08:41.591Z,19.90
2018-12-15T01:11:09.023Z,19.48
2018-12-15T01:13:36.499Z,20.45
2018-12-15T01:16:03.946Z,18.15
2018-12-15T01:18:31.383Z,19.45
2018-12-15T01:20:58.827Z,21.95
2018-12-15T01:23:26.264Z,19.00
2018-12-15T01:25:53.701Z,20.77
2018-12-15T01:28:21.137Z,17.85
2018-12-15T01:30:48.562Z,19.85
2018-12-15T01:33:16.000Z,19.10
2018-12-15T01:35:43.446Z,18.55
2018-12-15T01:38:10.920Z,19.70
2018-12-15T01:40:38.411Z,19.00
2018-12-15T01:43:05.839Z,19.98
2018-12-15T01:45:33.878Z,18.15
2018-12-15T01:48:01.326Z,19.70
2018-12-15T01:50:28.774Z,19.60
2018-12-15T01:52:56.214Z,19.90
2018-12-15T01:55:23.698Z,18.67
2018-12-15T01:57:51.136Z,16.48
2018-12-15T02:00:18.571Z,18.05
2018-12-15T02:02:46.046Z,18.35
2018-12-15T02:05:13.489Z,19.90
2018-12-15T02:07:40.926Z,17.70
2018-12-15T02:10:08.476Z,18.07
2018-12-15T02:12:36.009Z,18.15
2018-12-15T02:15:04.139Z,17.90
2018-12-15T02:17:33.804Z,17.92
2018-12-15T02:20:01.223Z,17.50
2018-12-15T02:22:28.678Z,18.62
2018-12-15T02:24:56.195Z,17.80
2018-12-15T02:27:23.648Z,18.70
2018-12-15T02:29:51.073Z,17.17
2018-12-15T02:32:18.515Z,19.65
2018-12-15T02:34:45.946Z,16.32
2018-12-15T02:37:13.378Z,17.27
2018-12-15T02:39:40.823Z,17.50
2018-12-15T02:42:08.359Z,18.25
2018-12-15T02:44:35.819Z,18.32
2018-12-15T02:47:03.331Z,18.70
2018-12-15T02:49:30.777Z,18.50
2018-12-15T02:51:58.227Z,19.82
2018-12-15T02:54:25.666Z,20.08
2018-12-15T02:56:53.137Z,21.97
2018-12-15T02:59:20.578Z,19.57
2018-12-15T03:01:48.023Z,18.30
2018-12-15T03:04:15.470Z,20.02
2018-12-15T03:06:42.914Z,19.30
2018-12-15T03:09:10.375Z,18.82
2018-12-15T03:11:37.832Z,19.70
2018-12-15T03:14:05.274Z,20.23
2018-12-15T03:16:32.714Z,20.40
2018-12-15T03:19:04.946Z,20.65
2018-12-15T03:21:32.386Z,21.70
2018-12-15T03:23:59.913Z,20.35
2018-12-15T03:26:27.442Z,23.22
2018-12-15T03:28:54.894Z,20.90
2018-12-15T03:31:22.350Z,22.80
2018-12-15T03:33:49.801Z,20.65
2018-12-15T03:36:17.318Z,24.50
2018-12-15T03:38:44.746Z,21.97
2018-12-15T03:41:12.242Z,22.25
2018-12-15T03:43:39.658Z,20.97
2018-12-15T03:46:07.898Z,23.07
2018-12-15T03:48:35.355Z,26.33
2018-12-15T03:51:02.799Z,24.37
2018-12-15T03:53:30.246Z,22.93
2018-12-15T03:55:57.691Z,23.65
2018-12-15T03:58:25.128Z,26.00
2018-12-15T04:00:52.560Z,24.92
2018-12-15T04:03:20.004Z,25.00
2018-12-15T04:05:47.446Z,25.65
2018-12-15T04:08:14.907Z,27.05
2018-12-15T04:10:42.425Z,25.45
2018-12-15T04:13:09.864Z,25.20
2018-12-15T04:15:37.411Z,27.15
2018-12-15T04:18:04.875Z,25.65
2018-12-15T04:20:32.404Z,26.52
2018-12-15T04:22:59.869Z,27.30
2018-12-15T04:25:27.310Z,26.95
2018-12-15T04:27:54.738Z,26.42
2018-12-15T04:30:22.193Z,26.60
2018-12-15T04:32:49.634Z,26.73
2018-12-15T04:35:17.082Z,26.82
2018-12-15T04:37:44.536Z,29.85
2018-12-15T04:40:12.000Z,30.00
2018-12-15T04:42:39.450Z,28.50
2018-12-15T04:45:06.905Z,31.42
2018-12-15T04:47:34.354Z,30.20
2018-12-15T04:50:01.871Z,29.80
2018-12-15T04:52:29.398Z,31.33
2018-12-15T04:54:56.838Z,29.75
2018-12-15T04:57:24.275Z,31.52
2018-12-15T04:59:51.707Z,33.48
2018-12-15T05:02:19.156Z,34.00
2018-12-15T05:04:46.606Z,29.85
2018-12-15T05:07:14.047Z,28.20
2018-12-15T05:09:42.344Z,32.93
2018-12-15T05:12:09.767Z,30.92
2018-12-15T05:14:37.557Z,31.20
2018-12-15T05:17:04.991Z,31.50
2018-12-15T05:19:32.430Z,30.88
2018-12-15T05:21:59.874Z,32.38
2018-12-15T05:24:27.298Z,32.05
2018-12-15T05:26:54.736Z,32.35
2018-12-15T05:29:22.176Z,31.85
2018-12-15T05:31:49.624Z,30.68
2018-12-15T05:34:17.063Z,31.60
2018-12-15T05:36:44.503Z,30.20
2018-12-15T05:39:11.934Z,30.72
2018-12-15T05:41:39.373Z,30.80
2018-12-15T05:44:07.241Z,30.43
2018-12-15T05:46:34.651Z,31.93
2018-12-15T05:49:02.080Z,34.10
2018-12-15T05:51:29.521Z,32.93
2018-12-15T05:53:56.954Z,31.05
2018-12-15T05:56:24.492Z,31.73
2018-12-15T05:58:51.922Z,34.23
2018-12-15T06:01:19.354Z,33.23
2018-12-15T06:03:46.778Z,32.67
2018-12-15T06:06:14.215Z,31.68
2018-12-15T06:08:41.654Z,34.92
2018-12-15T06:11:09.095Z,35.87
2018-12-15T06:13:36.546Z,35.93
2018-12-15T06:16:03.995Z,34.73
2018-12-15T06:18:31.860Z,33.80
2018-12-15T06:20:59.499Z,34.85
2018-12-15T06:23:26.939Z,34.35
2018-12-15T06:25:54.372Z,35.05
2018-12-15T06:28:21.880Z,36.20
2018-12-15T06:30:49.346Z,33.83
2018-12-15T06:33:16.894Z,33.23
2018-12-15T06:35:44.312Z,36.57
2018-12-15T06:38:11.757Z,35.90
2018-12-15T06:40:39.197Z,34.43
2018-12-15T06:43:06.632Z,35.03
2018-12-15T06:45:34.075Z,35.30
2018-12-15T06:48:01.514Z,34.77
2018-12-15T06:50:28.963Z,36.73
2018-12-15T06:52:56.409Z,36.07
2018-12-15T06:55:24.826Z,36.77
2018-12-15T06:57:52.332Z,35.98
2018-12-15T07:00:19.782Z,33.88
2018-12-15T07:02:47.235Z,37.40
2018-12-15T07:05:14.678Z,36.00
2018-12-15T07:07:42.126Z,35.35
2018-12-15T07:10:09.578Z,38.20
2018-12-15T07:12:37.022Z,38.20
2018-12-15T07:15:05.167Z,36.93
2018-12-15T07:17:32.611Z,38.63
2018-12-15T07:20:00.047Z,37.50
2018-12-15T07:22:27.491Z,38.03
2018-12-15T07:24:54.931Z,36.47
2018-12-15T07:27:22.362Z,35.80
2018-12-15T07:29:49.810Z,36.10
2018-12-15T07:32:17.248Z,36.67
2018-12-15T07:34:44.687Z,35.97
2018-12-15T07:37:12.167Z,37.00
2018-12-15T07:39:39.694Z,34.03
2018-12-15T07:42:07.135Z,36.58
2018-12-15T07:44:34.585Z,37.35
2018-12-15T07:47:02.028Z,36.30
2018-12-15T07:49:30.326Z,38.05
2018-12-15T07:51:57.763Z,36.13
2018-12-15T07:54:25.207Z,39.58
2018-12-15T07:56:52.648Z,37.73
2018-12-15T07:59:20.097Z,34.73
2018-12-15T08:01:47.538Z,38.02
2018-12-15T08:04:14.994Z,37.10
2018-12-15T08:06:42.426Z,36.73
2018-12-15T08:09:11.279Z,39.50
2018-12-15T08:11:44.582Z,36.55
2018-12-15T08:14:12.141Z,37.38
2018-12-15T08:16:39.593Z,38.53
2018-12-15T08:19:07.090Z,37.13
2018-12-15T08:21:34.535Z,37.60
2018-12-15T08:24:01.993Z,38.10
2018-12-15T08:26:29.425Z,35.13
2018-12-15T08:28:56.862Z,37.87
2018-12-15T08:31:24.317Z,39.93
2018-12-15T08:33:51.755Z,37.87
2018-12-15T08:36:19.203Z,36.87
2018-12-15T08:38:46.646Z,35.33
2018-12-15T08:41:14.082Z,38.60
2018-12-15T08:43:42.122Z,37.00
2018-12-15T08:46:11.476Z,36.80
2018-12-15T08:48:38.915Z,36.93
2018-12-15T08:51:06.373Z,36.28
2018-12-15T08:53:33.810Z,36.75
2018-12-15T08:56:01.238Z,33.45
2018-12-15T08:58:28.678Z,33.90
2018-12-15T09:00:56.135Z,33.73
2018-12-15T09:03:23.573Z,36.80
2018-12-15T09:05:51.023Z,34.55
2018-12-15T09:08:18.451Z,32.53
2018-12-15T09:10:45.886Z,31.02
2018-12-15T09:13:13.323Z,33.63
2018-12-15T09:15:40.763Z,31.12
2018-12-15T09:18:09.729Z,37.75
2018-12-15T09:20:37.357Z,30.50
2018-12-15T09:23:04.784Z,33.08
2018-12-15T09:25:32.238Z,30.67
2018-12-15T09:27:59.669Z,29.53
2018-12-15T09:30:27.111Z,31.63
2018-12-15T09:32:54.546Z,32.58
2018-12-15T09:35:22.006Z,31.90
2018-12-15T09:37:49.438Z,30.80
2018-12-15T09:40:16.881Z,31.10
2018-12-15T09:42:44.337Z,32.17
2018-12-15T09:45:11.766Z,30.17
2018-12-15T09:47:39.213Z,31.42
2018-12-15T09:50:06.656Z,30.03
2018-12-15T09:52:34.179Z,28.85
2018-12-15T09:55:01.674Z,31.42
2018-12-15T09:57:29.175Z,30.15
2018-12-15T09:59:56.623Z,28.45
2018-12-15T10:02:24.079Z,26.68
2018-12-15T10:04:53.598Z,28.65
2018-12-15T10:07:21.094Z,28.10
2018-12-15T10:09:48.538Z,27.42
2018-12-15T10:12:15.990Z,26.90
2018-12-15T10:14:43.722Z,28.60
2018-12-15T10:17:11.162Z,26.87
2018-12-15T10:19:38.598Z,26.17
2018-12-15T10:22:06.051Z,27.80
2018-12-15T10:24:33.479Z,26.70
2018-12-15T10:27:00.918Z,26.33
2018-12-15T10:32:35.394Z,28.27
2018-12-15T10:35:02.852Z,25.40
2018-12-15T10:37:30.293Z,26.17
2018-12-15T10:39:57.787Z,26.17
2018-12-15T10:42:25.250Z,23.47
2018-12-15T10:44:53.235Z,29.35
2018-12-15T10:47:20.680Z,26.12
2018-12-15T10:49:48.118Z,24.85
2018-12-15T10:52:15.567Z,23.67
2018-12-15T10:54:43.016Z,24.70
2018-12-15T10:57:10.465Z,25.80
2018-12-15T10:59:37.901Z,26.30
2018-12-15T11:02:05.346Z,21.90
2018-12-15T11:04:32.774Z,21.05
2018-12-15T11:07:00.226Z,20.23
2018-12-15T11:09:27.660Z,22.67
2018-12-15T11:11:55.107Z,23.25
2018-12-15T11:14:22.534Z,25.17
2018-12-15T11:16:49.975Z,23.00
2018-12-15T11:19:17.497Z,24.05
2018-12-15T11:21:45.087Z,21.42
2018-12-15T11:24:12.539Z,21.97
2018-12-15T11:26:40.022Z,21.37
2018-12-15T11:29:07.458Z,22.25
2018-12-15T11:31:34.893Z,21.23
2018-12-15T11:34:02.354Z,20.77
2018-12-15T11:36:29.787Z,21.77
2018-12-15T11:38:57.225Z,23.15
2018-12-15T11:41:24.680Z,20.00
2018-12-15T11:43:52.128Z,20.60
2018-12-15T11:46:19.580Z,18.77
2018-12-15T11:48:47.015Z,16.00
2018-12-15T11:51:14.458Z,17.62
2018-12-15T11:53:41.902Z,17.57
2018-12-15T11:56:09.342Z,16.87
2018-12-15T11:58:36.794Z,19.67
2018-12-15T12:01:04.247Z,20.25
2018-12-15T12:03:31.697Z,20.62
2018-12-15T12:05:59.195Z,22.55
2018-12-15T12:08:26.638Z,21.23
2018-12-15T12:10:54.079Z,21.90
2018-12-15T12:13:21.527Z,20.97
2018-12-15T12:15:48.950Z,20.35
2018-12-15T12:18:16.383Z,18.92
2018-12-15T12:20:43.825Z,18.15
2018-12-15T12:23:11.280Z,19.10
2018-12-15T12:25:38.715Z,18.67
2018-12-15T12:28:06.202Z,20.77
2018-12-15T12:30:33.650Z,17.77
2018-12-15T12:33:01.103Z,18.70
2018-12-15T12:35:28.650Z,19.57
2018-12-15T12:37:56.094Z,16.17
2018-12-15T12:40:23.530Z,18.95
2018-12-15T12:42:50.983Z,17.48
2018-12-15T12:45:18.440Z,15.50
2018-12-15T12:47:46.132Z,14.93
2018-12-15T12:50:13.555Z,15.40
2018-12-15T12:52:40.994Z,14.90
2018-12-15T12:55:08.542Z,13.90
2018-12-15T12:57:36.069Z,14.73
2018-12-15T13:00:03.799Z,16.77
2018-12-15T13:02:31.249Z,14.93
2018-12-15T13:04:58.713Z,12.25
2018-12-15T13:07:26.155Z,12.50
2018-12-15T13:09:53.605Z,11.85
2018-12-15T13:12:21.042Z,12.82
2018-12-15T13:14:48.506Z,13.15
2018-12-15T13:17:16.327Z,10.43
2018-12-15T13:19:43.742Z,11.88
2018-12-15T13:22:11.212Z,13.08
2018-12-15T13:24:38.754Z,11.10
2018-12-15T13:27:06.200Z,12.40
2018-12-15T13:29:33.626Z,10.98
2018-12-15T13:32:01.059Z,10.10
2018-12-15T13:34:28.498Z,11.10
2018-12-15T13:36:55.946Z,11.22
2018-12-15T13:39:23.374Z,10.93
2018-12-15T13:41:50.920Z,11.70
2018-12-15T13:44:18.350Z,11.22
2018-12-15T13:46:45.800Z,12.00
2018-12-15T13:49:13.234Z,10.48
2018-12-15T13:51:40.678Z,11.75
2018-12-15T13:54:08.695Z,10.30
2018-12-15T13:56:36.148Z,10.60
2018-12-15T13:59:03.603Z,11.43
2018-12-15T14:01:31.051Z,11.63
2018-12-15T14:03:58.503Z,12.70
2018-12-15T14:06:25.971Z,12.68
2018-12-15T14:08:53.395Z,9.83
2018-12-15T14:11:20.847Z,9.80
2018-12-15T14:13:48.385Z,11.48
2018-12-15T14:16:15.810Z,10.32
2018-12-15T14:18:43.254Z,13.38
2018-12-15T14:21:10.876Z,12.07
2018-12-15T14:23:38.346Z,11.60
2018-12-15T14:26:06.469Z,10.68
2018-12-15T14:28:33.929Z,11.03
2018-12-15T14:31:01.374Z,10.90
2018-12-15T14:33:28.825Z,10.98
2018-12-15T14:35:56.386Z,13.83
2018-12-15T14:38:23.822Z,11.95
2018-12-15T14:40:51.266Z,13.68
2018-12-15T14:43:18.710Z,11.90
2018-12-15T14:45:46.142Z,13.45
2018-12-15T14:48:13.594Z,14.85
2018-12-15T14:50:41.131Z,13.43
2018-12-15T14:53:08.588Z,13.15
2018-12-15T14:55:36.028Z,12.50
2018-12-15T14:58:03.573Z,12.05
2018-12-15T15:00:30.983Z,12.55
2018-12-15T15:02:58.432Z,14.83
2018-12-15T15:05:25.861Z,13.90
2018-12-15T15:07:53.315Z,11.43
2018-12-15T15:10:20.774Z,12.82
2018-12-15T15:12:48.262Z,14.13
2018-12-15T15:15:15.794Z,15.03
2018-12-15T15:17:43.258Z,12.33
2018-12-15T15:20:10.926Z,14.43
2018-12-15T15:22:38.380Z,14.85
2018-12-15T15:25:06.031Z,16.17
2018-12-15T15:27:33.482Z,14.18
2018-12-15T15:30:00.932Z,14.55
2018-12-15T15:32:28.391Z,14.15
2018-12-15T15:34:55.831Z,15.20
2018-12-15T15:37:23.266Z,15.83
2018-12-15T15:39:50.795Z,15.90
2018-12-15T15:42:18.227Z,15.80
2018-12-15T15:44:45.669Z,14.63
2018-12-15T15:47:13.115Z,15.32
2018-12-15T15:49:40.546Z,14.35
2018-12-15T15:52:07.978Z,14.93
2018-12-15T15:54:35.415Z,14.55
2018-12-15T15:57:02.871Z,15.03
2018-12-15T15:59:30.316Z,15.20
2018-12-15T16:01:57.749Z,15.20
2018-12-15T16:04:25.190Z,13.80
2018-12-15T16:06:52.693Z,15.08
2018-12-15T16:09:20.138Z,15.23
2018-12-15T16:11:47.567Z,14.83
2018-12-15T16:14:15.006Z,16.43
2018-12-15T16:16:42.438Z,16.37
2018-12-15T16:19:09.865Z,14.83
2018-12-15T16:21:37.407Z,17.10
2018-12-15T16:24:04.936Z,18.62
2018-12-15T16:26:32.394Z,17.25
2018-12-15T16:29:00.689Z,15.78
2018-12-15T16:31:28.530Z,17.62
2018-12-15T16:33:56.343Z,18.40
2018-12-15T16:36:23.783Z,16.17
2018-12-15T16:38:51.227Z,17.83
2018-12-15T16:41:18.735Z,18.47
2018-12-15T16:43:46.186Z,17.23
2018-12-15T16:46:13.738Z,16.00
2018-12-15T16:48:41.197Z,18.67
2018-12-15T16:51:08.658Z,17.98
2018-12-15T16:53:36.107Z,16.60
2018-12-15T16:56:03.669Z,18.92
2018-12-15T16:58:31.118Z,18.73
2018-12-15T17:00:58.633Z,17.12
2018-12-15T17:03:30.466Z,18.80
2018-12-15T17:05:55.523Z,18.00
2018-12-15T17:08:22.954Z,19.12
2018-12-15T17:10:50.642Z,17.62
2018-12-15T17:13:19.702Z,20.07
2018-12-15T17:15:47.224Z,18.73
2018-12-15T17:18:14.750Z,22.52
2018-12-15T17:20:44.235Z,17.90
2018-12-15T17:23:11.999Z,18.40
2018-12-15T17:25:39.467Z,19.77
2018-12-15T17:28:06.920Z,17.95
2018-12-15T17:30:34.358Z,19.30
2018-12-15T17:35:37.137Z,20.37
2018-12-15T17:38:04.589Z,17.55
2018-12-15T17:40:32.026Z,19.57
2018-12-15T17:42:59.569Z,20.30
2018-12-15T17:45:27.013Z,21.60
2018-12-15T17:47:54.468Z,20.55
2018-12-15T17:50:21.939Z,22.02
2018-12-15T17:52:49.402Z,19.17
2018-12-15T17:55:16.867Z,18.52
2018-12-15T17:57:44.410Z,18.73
2018-12-15T18:00:12.102Z,20.97
2018-12-15T18:02:39.570Z,19.25
2018-12-15T18:05:07.293Z,20.45
2018-12-15T18:07:34.755Z,20.72
2018-12-15T18:10:02.246Z,19.90
2018-12-15T18:12:29.690Z,18.67
2018-12-15T18:14:57.145Z,18.98
2018-12-15T18:17:24.575Z,19.62
2018-12-15T18:19:52.085Z,17.27
2018-12-15T18:22:19.558Z,18.23
2018-12-15T18:24:47.002Z,18.05
2018-12-15T18:27:14.494Z,17.10
2018-12-15T18:29:42.026Z,17.40
2018-12-15T18:32:09.514Z,16.00
2018-12-15T18:34:37.750Z,16.03
2018-12-15T18:37:05.242Z,17.85
2018-12-15T18:39:32.683Z,16.15
2018-12-15T18:42:00.443Z,16.30
2018-12-15T18:44:27.971Z,17.98
2018-12-15T18:46:55.426Z,17.15
2018-12-15T18:49:22.872Z,17.70
2018-12-15T18:51:50.322Z,20.43
2018-12-15T18:54:17.843Z,18.05
2018-12-15T18:56:45.487Z,17.73
2018-12-15T18:59:13.234Z,20.55
2018-12-15T19:01:40.678Z,18.27
2018-12-15T19:04:08.514Z,16.30
2018-12-15T19:06:35.951Z,18.35
2018-12-15T19:09:05.594Z,16.57
2018-12-15T19:11:33.035Z,17.82
2018-12-15T19:14:00.474Z,18.67
2018-12-15T19:16:27.909Z,17.57
2018-12-15T19:18:55.570Z,16.20
2018-12-15T19:21:23.214Z,16.60
2018-12-15T19:23:50.735Z,16.27
2018-12-15T19:26:18.174Z,15.00
2018-12-15T19:28:45.633Z,14.95
2018-12-15T19:31:13.181Z,15.30
2018-12-15T19:33:40.618Z,14.58
2018-12-15T19:36:08.115Z,14.20
2018-12-15T19:38:35.527Z,14.35
2018-12-15T19:43:36.974Z,12.70
2018-12-15T19:46:04.475Z,18.32
2018-12-15T19:48:31.924Z,13.95
2018-12-15T19:50:59.362Z,13.35
2018-12-15T19:53:26.828Z,12.63
2018-12-15T19:55:54.291Z,18.65
2018-12-15T19:58:21.724Z,13.10
2018-12-15T20:00:49.210Z,14.95
2018-12-15T20:03:16.661Z,12.82
2018-12-15T20:05:44.098Z,13.80
2018-12-15T20:08:11.550Z,12.45
2018-12-15T20:10:39.616Z,13.25
2018-12-15T20:13:07.053Z,13.55
2018-12-15T20:15:34.574Z,13.90
2018-12-15T20:18:02.038Z,12.70
2018-12-15T20:20:29.487Z,12.45
2018-12-15T20:22:56.940Z,14.70
2018-12-15T20:25:24.379Z,13.00
2018-12-15T20:27:52.118Z,13.70
2018-12-15T20:30:19.603Z,12.20
2018-12-15T20:32:47.059Z,14.78
2018-12-15T20:35:14.504Z,12.68
2018-12-15T20:37:41.939Z,13.40
2018-12-15T20:40:09.374Z,14.53
2018-12-15T20:42:36.833Z,13.48
2018-12-15T20:45:04.867Z,13.20
2018-12-15T20:47:32.302Z,14.38
2018-12-15T20:49:59.767Z,14.30
2018-12-15T20:52:27.223Z,12.20
2018-12-15T20:54:54.693Z,13.65
2018-12-15T20:57:22.127Z,13.50
2018-12-15T20:59:49.550Z,13.22
2018-12-15T21:02:16.989Z,15.40
2018-12-15T21:04:45.222Z,15.00
2018-12-15T21:07:12.668Z,14.35
2018-12-15T21:09:40.311Z,16.05
2018-12-15T21:12:07.739Z,15.63
2018-12-15T21:14:35.179Z,13.62
2018-12-15T21:17:02.640Z,15.23
2018-12-15T21:19:30.163Z,18.70
2018-12-15T21:21:57.616Z,14.63
2018-12-15T21:24:25.088Z,14.45
2018-12-15T21:26:53.046Z,15.60
2018-12-15T21:29:20.504Z,13.48
2018-12-15T21:31:48.039Z,13.48
2018-12-15T21:34:15.830Z,14.33
2018-12-15T21:36:43.251Z,13.25
2018-12-15T21:39:10.698Z,14.25
2018-12-15T21:41:38.203Z,15.35
2018-12-15T21:44:05.656Z,14.03
2018-12-15T21:46:33.181Z,14.30
2018-12-15T21:49:00.667Z,14.85
2018-12-15T21:51:28.206Z,14.80
2018-12-15T21:53:56.658Z,14.85
2018-12-15T21:56:24.130Z,14.90
2018-12-15T21:58:51.791Z,14.28
2018-12-15T22:01:19.226Z,14.70
2018-12-15T22:03:46.742Z,14.13
2018-12-15T22:06:14.203Z,15.95
2018-12-15T22:08:41.658Z,15.50
2018-12-15T22:11:09.101Z,14.43
2018-12-15T22:13:36.581Z,14.90
2018-12-15T22:16:04.198Z,16.85
2018-12-15T22:18:31.781Z,16.57
2018-12-15T22:20:59.423Z,15.93
2018-12-15T22:23:26.871Z,15.10
2018-12-15T22:25:54.358Z,16.60
2018-12-15T22:28:21.812Z,16.20
2018-12-15T22:30:49.251Z,16.87
2018-12-15T22:33:16.695Z,16.80
2018-12-15T22:35:44.147Z,17.23
2018-12-15T22:38:11.735Z,16.52
2018-12-15T22:40:39.184Z,17.00
2018-12-15T22:43:06.632Z,17.48
2018-12-15T22:45:34.066Z,18.60
2018-12-15T22:48:01.505Z,17.40
2018-12-15T22:50:28.950Z,20.68
2018-12-15T22:52:56.386Z,17.02
2018-12-15T22:55:23.825Z,19.23
2018-12-15T22:57:51.276Z,19.00
2018-12-15T23:00:18.726Z,18.48
2018-12-15T23:02:46.160Z,20.55
2018-12-15T23:05:13.607Z,21.52
2018-12-15T23:07:41.042Z,20.00
2018-12-15T23:10:08.494Z,20.67
2018-12-15T23:12:35.959Z,21.63
2018-12-15T23:15:04.207Z,21.82
2018-12-15T23:17:31.626Z,23.00
2018-12-15T23:19:59.066Z,21.33
2018-12-15T23:22:26.500Z,24.63
2018-12-15T23:24:53.945Z,21.53
2018-12-15T23:27:21.390Z,21.90
2018-12-15T23:29:48.838Z,23.70
2018-12-15T23:32:16.292Z,24.00
2018-12-15T23:34:43.747Z,24.10
2018-12-15T23:37:11.262Z,26.30
2018-12-15T23:39:38.698Z,25.62
2018-12-15T23:42:06.138Z,24.77
2018-12-15T23:44:33.586Z,23.42
2018-12-15T23:47:01.045Z,25.80
2018-12-15T23:49:28.499Z,23.75
2018-12-15T23:51:55.937Z,25.17
2018-12-15T23:54:23.386Z,26.35
2018-12-15T23:56:50.829Z,30.12
2018-12-15T23:59:18.271Z,26.90
